»·PEaware :: N2442P KTSP-KUDD

N2442P :: KTSP-KUDD

FLIGHT INFORMATION

Flight Status: Arrived
Operator: Privately registered:
United States
More flights under this callsign
Pilot: Ken Q. (14290)
Aircraft: MOONEY M-20K/M ENCORE BRAVO
(M20T)
More flights by this aircraft type
Origin: KTSP Tehachapi Mun
United States
Destination: KUDD Bermuda Dunes
United States
More flights between these airports :: More routes between these airports
Route: KTSP PMD PSP KUDD
File this flight plan on PilotEdge
Remarks:
Altitude:
(Current/Filed)
15,500ft
Speed:
(Current/Filed)
165kts
Departed: 11-Mar-17 10:52 AM
Arrived: 11-Mar-17 12:08 PM
Distance/Time
Traveled:
136nm/1:16
Distance/Time
To Go:
Arrived

Flight Plot

Page will automatically refresh every two minutes.

Flight plan parsing failed; only flown route is shown


Map Options




Map Legend


Flown Route
Filed Route
Departure Airport
Arrival Airport
Navaid (VOR, NDB)
Fix

Horizontal Profiles

Position Reports

Time Latitude Longitude Heading Altitude Ground
Speed
11-Mar-17 10:21 35.134169 -118.439661 300 4004ft 0kts
11-Mar-17 10:22 35.134169 -118.439661 300 4004ft 0kts
11-Mar-17 10:23 35.134169 -118.439661 300 4004ft 0kts
11-Mar-17 10:24 35.134169 -118.439661 300 4004ft 0kts
11-Mar-17 10:25 35.134169 -118.439661 300 4004ft 0kts
11-Mar-17 10:26 35.134169 -118.439661 300 4004ft 0kts
11-Mar-17 10:27 35.134169 -118.439661 300 4004ft 0kts
11-Mar-17 10:28 35.134169 -118.439661 300 4004ft 0kts
11-Mar-17 10:29 35.134169 -118.439661 300 4004ft 0kts
11-Mar-17 10:30 35.134169 -118.439661 300 4004ft 0kts
11-Mar-17 10:31 35.134169 -118.439661 300 4004ft 0kts
11-Mar-17 10:32 35.134169 -118.439661 300 4004ft 0kts
11-Mar-17 10:33 35.134169 -118.439661 300 4004ft 0kts
11-Mar-17 10:34 35.134169 -118.439661 300 4004ft 0kts
11-Mar-17 10:35 35.134169 -118.439661 300 4004ft 0kts
11-Mar-17 10:36 35.134169 -118.439661 300 4004ft 0kts
11-Mar-17 10:37 35.134169 -118.439661 300 4004ft 0kts
11-Mar-17 10:38 35.134169 -118.439661 300 4004ft 0kts
11-Mar-17 10:39 35.134169 -118.439661 300 4004ft 0kts
11-Mar-17 10:40 35.134169 -118.439661 300 4004ft 0kts
11-Mar-17 10:41 35.134170 -118.439662 300 4004ft 0kts
11-Mar-17 10:42 35.134170 -118.439663 300 4004ft 0kts
11-Mar-17 10:43 35.134171 -118.439663 300 4004ft 0kts
11-Mar-17 10:44 35.134171 -118.439664 300 4004ft 0kts
11-Mar-17 10:45 35.134206 -118.439684 8 4004ft 0kts
11-Mar-17 10:46 35.134206 -118.439684 8 4004ft 0kts
11-Mar-17 10:47 35.134206 -118.439684 8 4004ft 0kts
11-Mar-17 10:48 35.136022 -118.441830 304 4004ft 12kts
11-Mar-17 10:49 35.137756 -118.445158 293 4004ft 7kts
11-Mar-17 10:50 35.137939 -118.445222 90 4004ft 0kts
11-Mar-17 10:51 35.137939 -118.445216 89 4004ft 0kts
11-Mar-17 10:52 35.137939 -118.445212 89 4004ft 0kts
11-Mar-17 10:53 35.132693 -118.435239 121 4118ft 79kts
11-Mar-17 10:54 35.124863 -118.408662 120 4698ft 88kts
11-Mar-17 10:55 35.109234 -118.384999 130 5176ft 91kts
11-Mar-17 10:56 35.093542 -118.362985 125 5796ft 83kts
11-Mar-17 10:57 35.074709 -118.349322 144 6234ft 77kts
11-Mar-17 10:58 35.054628 -118.337162 146 6419ft 79kts
11-Mar-17 10:59 35.034883 -118.325580 146 6516ft 78kts
11-Mar-17 11:00 35.020564 -118.331581 316 6615ft 84kts
11-Mar-17 11:01 35.034202 -118.322050 122 6904ft 83kts
11-Mar-17 11:02 35.013404 -118.310627 150 7319ft 79kts
11-Mar-17 11:03 34.992621 -118.300593 150 7704ft 81kts
11-Mar-17 11:04 34.971684 -118.290464 150 7970ft 81kts
11-Mar-17 11:05 34.950672 -118.280282 150 8245ft 81kts
11-Mar-17 11:06 34.929066 -118.269068 148 8718ft 84kts
11-Mar-17 11:07 34.907905 -118.257340 148 9176ft 83kts
11-Mar-17 11:08 34.886648 -118.245290 148 9557ft 94kts
11-Mar-17 11:09 34.855965 -118.225412 148 9526ft 148kts
11-Mar-17 11:10 34.817639 -118.199559 148 9507ft 163kts
11-Mar-17 11:11 34.778462 -118.170086 145 9504ft 166kts
11-Mar-17 11:12 34.739238 -118.140047 145 9500ft 165kts
11-Mar-17 11:13 34.704473 -118.113933 145 9490ft 133kts
11-Mar-17 11:14 34.674247 -118.092136 147 9497ft 121kts
11-Mar-17 11:15 34.645094 -118.072593 147 9496ft 118kts
11-Mar-17 11:16 34.616808 -118.053026 128 9500ft 114kts
11-Mar-17 11:17 34.603299 -118.017939 108 9511ft 124kts
11-Mar-17 11:18 34.589928 -117.976578 109 9486ft 128kts
11-Mar-17 11:19 34.573909 -117.940040 116 9484ft 119kts
11-Mar-17 11:20 34.556386 -117.901201 115 9488ft 140kts
11-Mar-17 11:21 34.537287 -117.857734 115 9478ft 149kts
11-Mar-17 11:22 34.517639 -117.812752 115 9470ft 151kts
11-Mar-17 11:23 34.497921 -117.767587 115 9467ft 151kts
11-Mar-17 11:24 34.479091 -117.724757 115 9453ft 130kts
11-Mar-17 11:25 34.462544 -117.688032 115 9453ft 120kts
11-Mar-17 11:26 34.445280 -117.649467 115 9466ft 138kts
11-Mar-17 11:27 34.426480 -117.606846 115 9458ft 146kts
11-Mar-17 11:28 34.407159 -117.562857 115 9458ft 148kts
11-Mar-17 11:29 34.387626 -117.518354 115 9458ft 150kts
11-Mar-17 11:30 34.367907 -117.473369 115 9452ft 151kts
11-Mar-17 11:31 34.348739 -117.429976 115 9877ft 144kts
11-Mar-17 11:32 34.329412 -117.386467 119 10378ft 149kts
11-Mar-17 11:33 34.305533 -117.348033 125 11138ft 137kts
11-Mar-17 11:34 34.280825 -117.308932 125 11437ft 162kts
11-Mar-17 11:35 34.251926 -117.262320 125 11447ft 179kts
11-Mar-17 11:36 34.221663 -117.213211 124 11446ft 184kts
11-Mar-17 11:37 34.191943 -117.167711 128 11435ft 161kts
11-Mar-17 11:38 34.164009 -117.128031 128 11442ft 150kts
11-Mar-17 11:39 34.137131 -117.090012 128 11449ft 146kts
11-Mar-17 11:40 34.110971 -117.053098 128 11467ft 143kts
11-Mar-17 11:41 34.084979 -117.016430 128 11465ft 144kts
11-Mar-17 11:42 34.058988 -116.979823 128 11472ft 142kts
11-Mar-17 11:43 34.034197 -116.942784 125 11474ft 141kts
11-Mar-17 11:44 34.010190 -116.905104 125 11475ft 142kts
11-Mar-17 11:45 33.990879 -116.863852 108 11468ft 142kts
11-Mar-17 11:46 33.976575 -116.819700 108 11481ft 141kts
11-Mar-17 11:47 33.962172 -116.775262 108 11387ft 147kts
11-Mar-17 11:48 33.952192 -116.725153 85 10916ft 158kts
11-Mar-17 11:49 33.960625 -116.672358 75 10417ft 161kts
11-Mar-17 11:50 33.964461 -116.619242 97 9924ft 160kts
11-Mar-17 11:51 33.956267 -116.571532 98 9392ft 130kts
11-Mar-17 11:52 33.948317 -116.530995 98 8878ft 120kts
11-Mar-17 11:53 33.940323 -116.492660 98 8361ft 114kts
11-Mar-17 11:54 33.932293 -116.455279 98 7615ft 118kts
11-Mar-17 11:55 33.919844 -116.417890 108 6827ft 122kts
11-Mar-17 11:56 33.905589 -116.380082 108 6030ft 124kts
11-Mar-17 11:57 33.891308 -116.342152 108 5234ft 124kts
11-Mar-17 11:58 33.866401 -116.321480 188 4443ft 126kts
11-Mar-17 11:59 33.831732 -116.328135 188 3637ft 124kts
11-Mar-17 12:00 33.797658 -116.331967 179 2838ft 122kts
11-Mar-17 12:01 33.764451 -116.334133 186 2045ft 117kts
11-Mar-17 12:02 33.731790 -116.337633 163 1264ft 123kts
11-Mar-17 12:03 33.716869 -116.305476 112 889ft 90kts
11-Mar-17 12:04 33.708044 -116.280378 99 938ft 83kts
11-Mar-17 12:05 33.704935 -116.247907 92 930ft 111kts
11-Mar-17 12:06 33.711696 -116.217048 16 912ft 101kts
11-Mar-17 12:07 33.731141 -116.233238 295 569ft 84kts
11-Mar-17 12:08 33.741248 -116.257063 294 319ft 79kts
11-Mar-17 12:09 33.748356 -116.274625 297 76ft 20kts
11-Mar-17 12:10 33.748798 -116.277023 114 76ft 8kts
11-Mar-17 12:11 33.746785 -116.272734 92 76ft 3kts
11-Mar-17 12:12 33.746782 -116.272653 96 76ft 0kts
11-Mar-17 12:13 33.746782 -116.272653 96 76ft 0kts
11-Mar-17 12:14 33.746782 -116.272653 96 76ft 0kts
11-Mar-17 12:15 33.746782 -116.272653 96 76ft 0kts
11-Mar-17 12:16 33.746782 -116.272653 96 76ft 0kts
11-Mar-17 12:17 33.746782 -116.272653 96 76ft 0kts
11-Mar-17 12:18 33.746782 -116.272653 96 76ft 0kts
11-Mar-17 12:19 33.746782 -116.272653 96 76ft 0kts
11-Mar-17 12:20 33.746782 -116.272653 96 76ft 0kts
11-Mar-17 12:21 33.746782 -116.272653 96 76ft 0kts
11-Mar-17 12:22 33.746782 -116.272653 96 76ft 0kts
11-Mar-17 12:23 33.746782 -116.272653 96 76ft 0kts

Navigation Log

Ident Type
Flight plan parsing failed, navigation log unavailable